Terminal Aerodrome Forecast
Issued by NWS

Home | Current Version | Previous Version | Text Only | Print | Product List | Glossary On
Versions: 1 2 3 4 5 6 7 8 9 10 11 12 13 14 15 16 17 18 19 20 21 22 23 24 25 26 27 28 29 30 31 32 33 34 35 36
000
FTUS43 KDTX 311700
TAFYIP
TAF
KYIP 311728Z 3118/0118 25010G17KT P6SM BKN050 OVC120
     FM312300 23005KT P6SM SCT050
     FM010800 20005KT P6SM BKN100
     FM011400 24006KT P6SM BKN060=

USA.gov is the U.S. government's official web portal to all federal, state and local government web resources and services.